createdAt,value
2022-09-11T00:00:51.417Z,6.90
2022-09-11T00:03:21.474Z,6.93
2022-09-11T00:05:49.324Z,8.93
2022-09-11T00:08:19.445Z,8.93
2022-09-11T00:10:48.230Z,7.67
2022-09-11T00:13:21.182Z,8.03
2022-09-11T00:15:51.316Z,7.50
2022-09-11T00:18:22.340Z,8.53
2022-09-11T00:20:53.424Z,7.20
2022-09-11T00:23:22.689Z,7.30
2022-09-11T00:25:51.073Z,8.33
2022-09-11T00:28:21.186Z,7.37
2022-09-11T00:30:58.884Z,7.57
2022-09-11T00:33:28.836Z,7.50
2022-09-11T00:35:58.333Z,6.43
2022-09-11T00:38:27.103Z,7.00
2022-09-11T00:40:55.542Z,6.17
2022-09-11T00:43:23.450Z,6.77
2022-09-11T00:45:56.308Z,6.70
2022-09-11T00:48:29.921Z,7.13
2022-09-11T00:51:01.343Z,6.77
2022-09-11T00:53:31.663Z,6.87
2022-09-11T00:56:04.297Z,6.33
2022-09-11T00:58:36.418Z,7.50
2022-09-11T01:01:04.332Z,7.73
2022-09-11T01:03:33.183Z,7.13
2022-09-11T01:06:02.610Z,8.30
2022-09-11T01:08:30.317Z,9.03
2022-09-11T01:11:13.390Z,8.03
2022-09-11T01:13:48.652Z,7.43
2022-09-11T01:16:23.166Z,7.97
2022-09-11T01:18:57.544Z,7.70
2022-09-11T01:21:59.882Z,8.00
2022-09-11T01:24:53.447Z,7.03
2022-09-11T01:27:41.705Z,8.93
2022-09-11T01:30:12.349Z,8.30
2022-09-11T01:32:50.442Z,8.13
2022-09-11T01:35:24.934Z,9.17
2022-09-11T01:37:58.475Z,11.33
2022-09-11T01:40:29.157Z,8.60
2022-09-11T01:43:06.098Z,8.40
2022-09-11T01:45:37.249Z,8.87
2022-09-11T01:48:07.835Z,9.67
2022-09-11T01:50:39.888Z,9.60
2022-09-11T01:53:09.675Z,10.37
2022-09-11T01:55:42.722Z,10.67
2022-09-11T01:58:15.288Z,12.07
2022-09-11T02:00:49.671Z,10.60
2022-09-11T02:03:22.516Z,10.23
2022-09-11T02:05:54.747Z,10.83
2022-09-11T02:08:29.429Z,12.43
2022-09-11T02:11:03.685Z,11.80
2022-09-11T02:13:38.158Z,11.63
2022-09-11T02:16:13.907Z,15.20
2022-09-11T02:18:48.523Z,13.63
2022-09-11T02:21:16.240Z,12.97
2022-09-11T02:23:44.131Z,13.63
2022-09-11T02:26:14.964Z,16.87
2022-09-11T02:28:44.291Z,16.60
2022-09-11T02:31:12.282Z,22.97
2022-09-11T02:33:40.099Z,20.43
2022-09-11T02:36:22.249Z,23.00
2022-09-11T02:39:02.325Z,25.43
2022-09-11T02:41:37.536Z,22.80
2022-09-11T02:44:14.009Z,21.03
2022-09-11T02:46:56.729Z,22.37
2022-09-11T02:49:32.010Z,20.87
2022-09-11T02:52:05.596Z,35.10
2022-09-11T02:54:45.200Z,24.63
2022-09-11T02:57:19.831Z,19.73
2022-09-11T02:59:54.358Z,21.13
2022-09-11T03:02:24.030Z,22.90
2022-09-11T03:04:51.851Z,16.83
2022-09-11T03:07:19.580Z,23.07
2022-09-11T03:09:47.263Z,26.47
2022-09-11T03:12:15.422Z,19.20
2022-09-11T03:14:43.269Z,17.43
2022-09-11T03:17:13.467Z,17.10
2022-09-11T03:19:41.171Z,19.70
2022-09-11T03:22:08.910Z,20.27
2022-09-11T03:24:36.642Z,17.97
2022-09-11T03:27:05.437Z,19.23
2022-09-11T03:29:33.565Z,31.57
2022-09-11T03:32:01.296Z,17.27
2022-09-11T03:34:31.692Z,15.60
2022-09-11T03:37:00.180Z,17.80
2022-09-11T03:39:27.874Z,30.80
2022-09-11T03:41:55.586Z,17.17
2022-09-11T03:44:23.275Z,21.10
2022-09-11T03:46:52.635Z,15.70
2022-09-11T03:49:20.398Z,16.00
2022-09-11T03:51:49.454Z,21.00
2022-09-11T03:54:18.291Z,17.00
2022-09-11T03:56:45.990Z,19.40
2022-09-11T03:59:13.699Z,16.10
2022-09-11T04:01:41.440Z,16.10
2022-09-11T04:04:09.153Z,14.60
2022-09-11T04:06:36.853Z,15.53
2022-09-11T04:09:05.960Z,14.60
2022-09-11T04:11:37.449Z,13.20
2022-09-11T04:14:05.462Z,14.07
2022-09-11T04:16:33.483Z,14.17
2022-09-11T04:19:02.007Z,14.83
2022-09-11T04:21:30.144Z,15.80
2022-09-11T04:24:00.219Z,16.53
2022-09-11T04:26:32.339Z,14.60
2022-09-11T04:29:00.358Z,14.20
2022-09-11T04:31:28.768Z,14.47
2022-09-11T04:33:58.164Z,13.70
2022-09-11T04:36:27.181Z,14.53
2022-09-11T04:38:57.734Z,13.80
2022-09-11T04:41:26.222Z,15.17
2022-09-11T04:44:02.401Z,15.33
2022-09-11T04:46:32.323Z,16.00
2022-09-11T04:49:00.216Z,16.10
2022-09-11T04:51:30.162Z,15.83
2022-09-11T04:53:59.131Z,15.90
2022-09-11T04:56:28.054Z,15.07
2022-09-11T04:58:59.722Z,16.33
2022-09-11T05:01:31.314Z,16.47
2022-09-11T05:04:00.492Z,15.40
2022-09-11T05:06:30.336Z,18.17
2022-09-11T05:09:02.564Z,17.63
2022-09-11T05:11:31.034Z,19.80
2022-09-11T05:14:00.470Z,19.60
2022-09-11T05:16:29.775Z,19.23
2022-09-11T05:18:58.830Z,20.13
2022-09-11T05:21:27.819Z,21.97
2022-09-11T05:23:57.889Z,19.73
2022-09-11T05:26:27.979Z,22.37
2022-09-11T05:28:56.303Z,22.50
2022-09-11T05:31:26.381Z,23.23
2022-09-11T05:33:55.852Z,21.73
2022-09-11T05:36:24.287Z,22.17
2022-09-11T05:38:52.760Z,25.50
2022-09-11T05:41:21.352Z,23.00
2022-09-11T05:43:49.534Z,22.77
2022-09-11T05:46:18.494Z,21.50
2022-09-11T05:48:48.085Z,27.97
2022-09-11T05:51:18.481Z,23.97
2022-09-11T05:53:46.198Z,25.43
2022-09-11T05:56:15.791Z,24.20
2022-09-11T05:58:43.911Z,20.50
2022-09-11T06:01:13.487Z,19.90
2022-09-11T06:03:42.056Z,21.07
2022-09-11T06:06:13.373Z,21.60
2022-09-11T06:08:44.086Z,18.80
2022-09-11T06:11:14.156Z,26.13
2022-09-11T06:13:43.838Z,19.73
2022-09-11T06:16:17.822Z,20.40
2022-09-11T06:18:49.195Z,21.43
2022-09-11T06:21:20.488Z,22.07
2022-09-11T06:23:49.140Z,20.00
2022-09-11T06:26:19.351Z,20.80
2022-09-11T06:28:47.395Z,22.37
2022-09-11T06:31:17.302Z,20.13
2022-09-11T06:33:45.293Z,22.20
2022-09-11T06:36:14.518Z,21.57
2022-09-11T06:38:44.318Z,24.20
2022-09-11T06:41:16.464Z,31.23
2022-09-11T06:43:45.086Z,32.60
2022-09-11T06:46:14.633Z,33.10
2022-09-11T06:48:43.380Z,27.60
2022-09-11T06:51:13.082Z,32.97
2022-09-11T06:53:41.968Z,30.30
2022-09-11T06:56:14.064Z,25.20
2022-09-11T06:58:42.178Z,30.73
2022-09-11T07:01:12.566Z,29.80
2022-09-11T07:03:43.975Z,30.63
2022-09-11T07:06:11.792Z,30.67
2022-09-11T07:08:40.078Z,28.07
2022-09-11T07:11:08.874Z,30.93
2022-09-11T07:13:38.519Z,30.47
2022-09-11T07:16:08.912Z,28.23
2022-09-11T07:18:37.433Z,28.50
2022-09-11T07:21:09.084Z,27.93
2022-09-11T07:23:36.910Z,31.33
2022-09-11T07:26:06.009Z,29.70
2022-09-11T07:28:33.797Z,31.53
2022-09-11T07:31:10.514Z,30.27
2022-09-11T07:33:39.603Z,32.63
2022-09-11T07:36:12.059Z,28.33
2022-09-11T07:38:41.014Z,29.23
2022-09-11T07:41:09.794Z,31.33
2022-09-11T07:43:38.026Z,29.03
2022-09-11T07:46:08.266Z,33.13
2022-09-11T07:48:35.984Z,30.03
2022-09-11T07:51:05.288Z,30.90
2022-09-11T07:53:34.509Z,31.93
2022-09-11T07:56:04.392Z,30.17
2022-09-11T07:58:35.979Z,33.13
2022-09-11T08:01:05.317Z,32.50
2022-09-11T08:03:35.359Z,30.07
2022-09-11T08:06:06.337Z,33.03
2022-09-11T08:08:34.939Z,32.60
2022-09-11T08:11:05.529Z,34.03
2022-09-11T08:13:33.520Z,30.23
2022-09-11T08:16:01.458Z,32.60
2022-09-11T08:18:29.579Z,31.90
2022-09-11T08:21:04.452Z,31.30
2022-09-11T08:23:33.089Z,30.40
2022-09-11T08:26:07.826Z,30.50
2022-09-11T08:28:37.033Z,31.63
2022-09-11T08:31:06.167Z,30.07
2022-09-11T08:33:34.373Z,30.80
2022-09-11T08:36:06.130Z,34.60
2022-09-11T08:38:34.325Z,29.00
2022-09-11T08:41:12.243Z,29.03
2022-09-11T08:43:50.817Z,29.90
2022-09-11T08:46:21.848Z,32.07
2022-09-11T08:48:58.190Z,31.23
2022-09-11T08:51:27.250Z,30.33
2022-09-11T08:53:56.940Z,27.80
2022-09-11T08:56:28.614Z,23.70
2022-09-11T08:59:12.191Z,27.50
2022-09-11T09:01:47.128Z,24.37
2022-09-11T09:04:42.712Z,26.47
2022-09-11T09:07:22.789Z,23.03
2022-09-11T09:10:00.166Z,26.20
2022-09-11T09:12:34.057Z,24.47
2022-09-11T09:15:17.659Z,23.83
2022-09-11T09:17:50.161Z,23.90
2022-09-11T09:20:22.587Z,21.10
2022-09-11T09:22:57.310Z,24.03
2022-09-11T09:25:26.494Z,22.17
2022-09-11T09:28:00.434Z,22.93
2022-09-11T09:30:35.432Z,22.27
2022-09-11T09:33:13.396Z,20.47
2022-09-11T09:35:43.168Z,20.43
2022-09-11T09:38:15.634Z,21.60
2022-09-11T09:40:54.888Z,19.20
2022-09-11T09:43:33.905Z,18.90
2022-09-11T09:46:20.115Z,21.27
2022-09-11T09:48:48.202Z,23.30
2022-09-11T09:51:16.156Z,18.90
2022-09-11T09:53:49.465Z,19.27
2022-09-11T09:56:19.883Z,19.23
2022-09-11T09:58:56.167Z,19.00
2022-09-11T10:01:46.825Z,16.70
2022-09-11T10:04:18.050Z,20.63
2022-09-11T10:06:47.056Z,17.00
2022-09-11T10:09:28.142Z,19.53
2022-09-11T10:12:02.640Z,16.60
2022-09-11T10:17:23.084Z,16.83
2022-09-11T10:19:52.816Z,14.47
2022-09-11T10:22:26.242Z,15.47
2022-09-11T10:25:01.806Z,16.00
2022-09-11T10:27:31.522Z,14.17
2022-09-11T10:30:00.483Z,19.20
2022-09-11T10:32:28.950Z,18.03
2022-09-11T10:34:57.139Z,13.97
2022-09-11T10:37:27.730Z,13.53
2022-09-11T10:40:05.853Z,14.20
2022-09-11T10:42:37.753Z,16.23
2022-09-11T10:45:14.688Z,13.63
2022-09-11T10:47:42.468Z,15.50
2022-09-11T10:50:28.789Z,14.60
2022-09-11T10:53:18.218Z,12.63
2022-09-11T10:55:57.727Z,11.60
2022-09-11T10:58:31.484Z,10.33
2022-09-11T11:00:59.265Z,11.40
2022-09-11T11:03:29.395Z,14.73
2022-09-11T11:06:08.377Z,12.07
2022-09-11T11:08:59.715Z,12.07
2022-09-11T11:11:42.701Z,14.80
2022-09-11T11:15:04.428Z,13.37
2022-09-11T11:17:40.519Z,12.63
2022-09-11T11:20:29.268Z,11.37
2022-09-11T11:23:32.674Z,11.20
2022-09-11T11:26:16.765Z,12.97
2022-09-11T11:29:10.097Z,12.10
2022-09-11T11:31:51.522Z,14.50
2022-09-11T11:34:34.518Z,12.33
2022-09-11T11:37:07.529Z,13.70
2022-09-11T11:39:43.117Z,11.43
2022-09-11T11:42:16.696Z,11.77
2022-09-11T11:44:49.223Z,11.37
2022-09-11T11:47:19.946Z,14.87
2022-09-11T11:49:55.940Z,15.67
2022-09-11T11:52:33.859Z,12.97
2022-09-11T11:55:08.381Z,15.50
2022-09-11T11:57:41.574Z,12.77
2022-09-11T12:00:14.523Z,15.30
2022-09-11T12:02:46.560Z,10.93
2022-09-11T12:05:18.700Z,12.90
2022-09-11T12:07:47.327Z,11.20
2022-09-11T12:10:26.935Z,12.70
2022-09-11T12:12:59.476Z,12.80
2022-09-11T12:15:32.065Z,11.70
2022-09-11T12:18:03.312Z,12.13
2022-09-11T12:20:40.589Z,9.93
2022-09-11T12:23:35.886Z,10.03
2022-09-11T12:26:22.108Z,11.30
2022-09-11T12:28:50.666Z,10.67
2022-09-11T12:31:19.761Z,11.63
2022-09-11T12:33:57.171Z,10.53
2022-09-11T12:36:36.156Z,9.00
2022-09-11T12:39:16.005Z,9.60
2022-09-11T12:41:43.795Z,7.43
2022-09-11T12:44:31.392Z,6.13
2022-09-11T12:47:17.292Z,5.63
2022-09-11T12:49:54.857Z,5.13
2022-09-11T12:52:33.797Z,5.87
2022-09-11T12:55:07.782Z,5.63
2022-09-11T12:57:40.011Z,4.07
2022-09-11T13:00:20.961Z,4.27
2022-09-11T13:02:55.274Z,4.93
2022-09-11T13:05:28.119Z,3.30
2022-09-11T13:07:57.895Z,3.07
2022-09-11T13:10:33.372Z,3.47
2022-09-11T13:13:03.382Z,5.53
2022-09-11T13:15:40.982Z,3.47
2022-09-11T13:18:34.946Z,3.53
2022-09-11T13:21:13.441Z,4.20
2022-09-11T13:23:42.488Z,3.60
2022-09-11T13:26:16.195Z,3.33
2022-09-11T13:28:46.841Z,2.60
2022-09-11T13:31:19.345Z,3.47
2022-09-11T13:33:53.168Z,3.87
2022-09-11T13:36:24.619Z,3.70
2022-09-11T13:38:56.023Z,3.00
2022-09-11T13:41:29.733Z,3.83
2022-09-11T13:43:59.996Z,4.80
2022-09-11T13:46:31.099Z,2.93
2022-09-11T13:49:23.874Z,3.00
2022-09-11T13:51:51.844Z,3.83
2022-09-11T13:54:28.497Z,3.77
2022-09-11T13:57:17.417Z,3.20
2022-09-11T13:59:50.267Z,3.40
2022-09-11T14:02:41.794Z,3.40
2022-09-11T14:05:15.768Z,3.30
2022-09-11T14:07:57.123Z,4.37
2022-09-11T14:10:28.396Z,2.93
2022-09-11T14:13:04.151Z,2.50
2022-09-11T14:15:40.448Z,2.83
2022-09-11T14:18:14.774Z,2.53
2022-09-11T14:20:45.930Z,2.87
2022-09-11T14:23:19.993Z,2.10
2022-09-11T14:26:10.282Z,1.97
2022-09-11T14:28:44.281Z,2.20
2022-09-11T14:31:14.421Z,2.37
2022-09-11T14:33:42.542Z,2.47
2022-09-11T14:36:20.391Z,1.87
2022-09-11T14:38:49.063Z,2.60
2022-09-11T14:41:16.755Z,2.30
2022-09-11T14:43:47.749Z,2.80
2022-09-11T14:46:17.372Z,1.70
2022-09-11T14:48:45.430Z,1.50
2022-09-11T14:51:14.720Z,3.43
2022-09-11T14:53:43.929Z,1.40
2022-09-11T14:56:11.740Z,1.70
2022-09-11T14:58:39.404Z,1.40
2022-09-11T15:01:07.282Z,1.80
2022-09-11T15:03:35.103Z,1.40
2022-09-11T15:06:02.879Z,2.23
2022-09-11T15:08:31.954Z,1.83
2022-09-11T15:10:59.664Z,1.60
2022-09-11T15:13:27.649Z,1.40
2022-09-11T15:15:56.057Z,2.20
2022-09-11T15:18:23.827Z,2.07
2022-09-11T15:20:51.550Z,2.57
2022-09-11T15:23:19.317Z,2.53
2022-09-11T15:25:48.437Z,1.60
2022-09-11T15:28:16.203Z,1.60
2022-09-11T15:30:43.916Z,1.50
2022-09-11T15:33:11.868Z,3.17
2022-09-11T15:35:39.529Z,2.13
2022-09-11T15:38:07.875Z,2.00
2022-09-11T15:40:36.350Z,1.90
2022-09-11T15:43:05.463Z,2.00
2022-09-11T15:45:33.468Z,2.63
2022-09-11T15:48:02.614Z,2.87
2022-09-11T15:50:30.370Z,1.40
2022-09-11T15:52:58.578Z,3.63
2022-09-11T15:55:27.255Z,2.10
2022-09-11T15:57:55.005Z,2.00
2022-09-11T16:00:24.135Z,2.37
2022-09-11T16:02:53.200Z,1.70
2022-09-11T16:05:22.472Z,1.67
2022-09-11T16:07:50.225Z,2.37
2022-09-11T16:10:18.590Z,1.83
2022-09-11T16:12:47.023Z,4.10
2022-09-11T16:15:14.719Z,1.57
2022-09-11T16:17:44.895Z,1.50
2022-09-11T16:20:15.196Z,1.70
2022-09-11T16:22:42.946Z,2.23
2022-09-11T16:25:10.987Z,1.97
2022-09-11T16:27:38.831Z,2.53
2022-09-11T16:32:56.759Z,1.63
2022-09-11T16:35:25.519Z,1.73
2022-09-11T16:37:53.491Z,1.67
2022-09-11T16:40:21.226Z,1.93
2022-09-11T16:42:48.930Z,2.90
2022-09-11T16:45:16.876Z,2.53
2022-09-11T16:47:44.587Z,2.07
2022-09-11T16:50:14.507Z,2.00
2022-09-11T16:52:42.207Z,2.10
2022-09-11T16:55:11.727Z,3.30
2022-09-11T16:57:39.834Z,2.47
2022-09-11T17:00:09.634Z,1.60
2022-09-11T17:02:37.480Z,1.57
2022-09-11T17:05:06.032Z,1.87
2022-09-11T17:07:35.628Z,2.87
2022-09-11T17:10:03.435Z,1.83
2022-09-11T17:12:31.518Z,1.77
2022-09-11T17:14:59.416Z,3.20
2022-09-11T17:17:27.176Z,2.90
2022-09-11T17:19:54.912Z,3.50
2022-09-11T17:22:22.739Z,5.30
2022-09-11T17:24:51.915Z,5.00
2022-09-11T17:27:19.653Z,4.33
2022-09-11T17:29:47.837Z,5.67
2022-09-11T17:32:29.052Z,4.50
2022-09-11T17:34:58.418Z,5.20
2022-09-11T17:37:27.013Z,4.90
2022-09-11T17:39:57.752Z,6.70
2022-09-11T17:42:27.419Z,6.30
2022-09-11T17:44:55.156Z,6.63
2022-09-11T17:47:23.155Z,6.93
2022-09-11T17:49:50.995Z,5.97
2022-09-11T17:52:20.279Z,7.57
2022-09-11T17:54:48.953Z,6.27
2022-09-11T17:57:18.064Z,6.07
2022-09-11T17:59:49.831Z,7.77
2022-09-11T18:02:18.203Z,8.43
2022-09-11T18:04:48.039Z,10.43
2022-09-11T18:07:16.901Z,8.87
2022-09-11T18:09:44.869Z,10.43
2022-09-11T18:12:12.623Z,9.67
2022-09-11T18:14:42.967Z,9.33
2022-09-11T18:17:11.271Z,9.67
2022-09-11T18:19:39.115Z,8.53
2022-09-11T18:22:07.549Z,7.57
2022-09-11T18:24:35.274Z,7.87
2022-09-11T18:27:02.981Z,8.47
2022-09-11T18:29:30.738Z,10.33
2022-09-11T18:32:00.209Z,8.07
2022-09-11T18:34:28.790Z,9.37
2022-09-11T18:36:56.765Z,9.30
2022-09-11T18:39:24.511Z,9.70
2022-09-11T18:41:53.245Z,8.07
2022-09-11T18:44:22.957Z,9.07
2022-09-11T18:46:53.611Z,9.90
2022-09-11T18:49:23.365Z,9.30
2022-09-11T18:51:51.165Z,8.77
2022-09-11T18:54:21.223Z,10.33
2022-09-11T18:56:50.358Z,9.63
2022-09-11T18:59:19.376Z,12.50
2022-09-11T19:01:47.560Z,10.27
2022-09-11T19:04:16.835Z,9.63
2022-09-11T19:06:46.246Z,11.50
2022-09-11T19:09:14.667Z,11.93
2022-09-11T19:11:42.963Z,10.67
2022-09-11T19:14:12.790Z,10.40
2022-09-11T19:16:40.942Z,10.43
2022-09-11T19:19:09.004Z,9.87
2022-09-11T19:21:37.787Z,10.10
2022-09-11T19:24:07.767Z,10.60
2022-09-11T19:26:38.781Z,11.07
2022-09-11T19:29:08.549Z,9.67
2022-09-11T19:31:36.847Z,12.53
2022-09-11T19:34:04.625Z,9.83
2022-09-11T19:36:34.213Z,9.63
2022-09-11T19:39:02.869Z,10.67
2022-09-11T19:41:33.841Z,12.97
2022-09-11T19:44:02.575Z,12.33
2022-09-11T19:46:31.749Z,12.37
2022-09-11T19:49:02.834Z,12.10
2022-09-11T19:51:32.291Z,10.83
2022-09-11T19:54:02.585Z,12.47
2022-09-11T19:56:32.869Z,11.43
2022-09-11T19:59:00.915Z,10.93
2022-09-11T20:01:30.344Z,11.97
2022-09-11T20:04:00.486Z,10.70
2022-09-11T20:06:30.439Z,10.47
2022-09-11T20:09:20.164Z,11.57
2022-09-11T20:11:48.757Z,11.30
2022-09-11T20:14:16.465Z,11.00
2022-09-11T20:16:44.295Z,11.27
2022-09-11T20:19:12.108Z,10.40
2022-09-11T20:21:40.523Z,10.43
2022-09-11T20:24:09.098Z,11.50
2022-09-11T20:26:37.262Z,11.13
2022-09-11T20:29:08.479Z,10.50
2022-09-11T20:31:46.487Z,14.40
2022-09-11T20:34:15.144Z,14.27
2022-09-11T20:36:42.843Z,13.33
2022-09-11T20:39:12.680Z,16.40
2022-09-11T20:41:40.363Z,13.70
2022-09-11T20:44:09.504Z,15.53
2022-09-11T20:46:37.266Z,15.63
2022-09-11T20:49:06.151Z,15.00
2022-09-11T20:51:34.561Z,11.30
2022-09-11T20:54:02.328Z,10.53
2022-09-11T20:56:30.242Z,11.70
2022-09-11T20:59:00.040Z,11.67
2022-09-11T21:01:32.283Z,10.73
2022-09-11T21:04:00.818Z,13.17
2022-09-11T21:06:31.255Z,10.03
2022-09-11T21:09:01.366Z,11.30
2022-09-11T21:11:30.505Z,9.93
2022-09-11T21:13:58.283Z,10.63
2022-09-11T21:16:26.031Z,11.47
2022-09-11T21:18:57.502Z,12.23
2022-09-11T21:21:26.681Z,10.57
2022-09-11T21:23:55.146Z,10.97
2022-09-11T21:26:23.101Z,10.77
2022-09-11T21:28:50.920Z,10.77
2022-09-11T21:31:19.637Z,9.93
2022-09-11T21:33:47.491Z,11.23
2022-09-11T21:36:16.830Z,10.83
2022-09-11T21:38:44.575Z,11.40
2022-09-11T21:41:14.298Z,10.87
2022-09-11T21:43:42.177Z,10.10
2022-09-11T21:46:10.611Z,10.73
2022-09-11T21:48:41.137Z,11.93
2022-09-11T21:51:10.238Z,13.97
2022-09-11T21:53:39.771Z,11.17
2022-09-11T21:56:08.593Z,12.70
2022-09-11T21:58:36.382Z,9.83
2022-09-11T22:01:08.532Z,9.97
2022-09-11T22:03:36.658Z,12.53
2022-09-11T22:06:06.927Z,11.00
2022-09-11T22:08:35.297Z,11.20
2022-09-11T22:11:05.792Z,10.20
2022-09-11T22:13:35.326Z,8.63
2022-09-11T22:16:06.243Z,10.63
2022-09-11T22:18:34.138Z,13.63
2022-09-11T22:21:01.898Z,11.03
2022-09-11T22:23:30.572Z,11.60
2022-09-11T22:26:00.313Z,10.83
2022-09-11T22:28:29.519Z,11.10
2022-09-11T22:30:57.538Z,12.70
2022-09-11T22:33:25.528Z,9.97
2022-09-11T22:35:53.244Z,11.60
2022-09-11T22:38:20.961Z,9.97
2022-09-11T22:40:53.438Z,10.07
2022-09-11T22:43:21.211Z,10.37
2022-09-11T22:45:53.692Z,11.53
2022-09-11T22:48:21.459Z,11.17
2022-09-11T22:50:49.152Z,10.47
2022-09-11T22:53:16.879Z,12.37
2022-09-11T22:55:45.127Z,11.03
2022-09-11T22:58:13.175Z,11.33
2022-09-11T23:00:41.749Z,10.03
2022-09-11T23:03:10.939Z,11.37
2022-09-11T23:05:55.979Z,10.43
2022-09-11T23:08:28.503Z,9.60
2022-09-11T23:11:00.426Z,10.27
2022-09-11T23:13:28.727Z,11.00
2022-09-11T23:15:57.510Z,12.07
2022-09-11T23:18:28.207Z,10.37
2022-09-11T23:20:56.916Z,11.00
2022-09-11T23:23:25.271Z,11.67
2022-09-11T23:25:53.351Z,11.27
2022-09-11T23:28:21.047Z,12.30
2022-09-11T23:30:48.830Z,11.93
2022-09-11T23:33:16.512Z,9.37
2022-09-11T23:35:45.559Z,10.00
2022-09-11T23:38:13.276Z,12.83
2022-09-11T23:40:40.987Z,9.83
2022-09-11T23:43:08.682Z,10.60
2022-09-11T23:45:36.521Z,9.87
2022-09-11T23:48:04.517Z,10.37
2022-09-11T23:50:32.189Z,11.87
2022-09-11T23:53:01.245Z,9.57
2022-09-11T23:55:29.158Z,9.00
2022-09-11T23:57:57.320Z,10.53
